createdAt,value
2019-04-22T00:00:40.445Z,10.58
2019-04-22T00:03:33.956Z,9.88
2019-04-22T00:06:34.122Z,10.35
2019-04-22T00:09:24.013Z,10.18
2019-04-22T00:12:14.514Z,10.63
2019-04-22T00:14:54.226Z,9.43
2019-04-22T00:20:30.659Z,10.98
2019-04-22T00:23:18.693Z,9.53
2019-04-22T00:26:15.007Z,9.65
2019-04-22T00:31:57.535Z,10.35
2019-04-22T00:34:34.116Z,10.90
2019-04-22T00:37:28.635Z,10.23
2019-04-22T00:40:21.063Z,10.82
2019-04-22T00:42:58.564Z,10.40
2019-04-22T00:45:51.553Z,10.43
2019-04-22T00:48:37.985Z,11.08
2019-04-22T00:51:28.584Z,11.43
2019-04-22T00:54:08.503Z,9.88
2019-04-22T00:56:55.893Z,10.23
2019-04-22T00:59:46.853Z,10.65
2019-04-22T01:02:34.623Z,10.08
2019-04-22T01:05:21.397Z,11.28
2019-04-22T01:08:07.138Z,11.15
2019-04-22T01:10:52.229Z,10.20
2019-04-22T01:13:38.663Z,10.38
2019-04-22T01:19:15.088Z,10.40
2019-04-22T01:22:03.075Z,10.90
2019-04-22T01:24:46.449Z,10.72
2019-04-22T01:27:27.892Z,11.43
2019-04-22T01:30:10.956Z,11.00
2019-04-22T01:32:48.593Z,10.63
2019-04-22T01:35:48.883Z,10.40
2019-04-22T01:38:43.257Z,10.58
2019-04-22T01:41:37.758Z,10.55
2019-04-22T01:44:21.551Z,11.45
2019-04-22T01:47:08.158Z,10.50
2019-04-22T01:49:53.808Z,10.93
2019-04-22T01:52:39.892Z,10.75
2019-04-22T01:55:31.090Z,11.55
2019-04-22T01:58:10.755Z,11.10
2019-04-22T02:00:59.942Z,11.12
2019-04-22T02:03:57.870Z,13.10
2019-04-22T02:06:45.996Z,11.73
2019-04-22T02:09:31.371Z,11.93
2019-04-22T02:12:19.957Z,11.57
2019-04-22T02:15:09.222Z,11.73
2019-04-22T02:17:54.861Z,11.93
2019-04-22T02:20:37.320Z,11.48
2019-04-22T02:26:22.711Z,12.43
2019-04-22T02:29:01.391Z,12.30
2019-04-22T02:34:49.730Z,13.55
2019-04-22T02:40:17.474Z,12.18
2019-04-22T02:43:12.169Z,12.88
2019-04-22T02:46:23.385Z,13.00
2019-04-22T02:48:53.866Z,12.70
2019-04-22T02:57:18.799Z,13.72
2019-04-22T03:00:00.941Z,12.73
2019-04-22T03:05:40.452Z,12.82
2019-04-22T03:08:15.019Z,12.80
2019-04-22T03:11:07.141Z,13.95
2019-04-22T03:22:08.177Z,14.25
2019-04-22T03:25:23.812Z,14.03
2019-04-22T03:36:28.789Z,12.70
2019-04-22T03:39:24.850Z,15.13
2019-04-22T03:47:21.232Z,14.05
2019-04-22T03:50:17.396Z,13.53
2019-04-22T03:52:56.524Z,13.83
2019-04-22T03:58:21.477Z,14.60
2019-04-22T04:04:09.351Z,14.30
2019-04-22T04:07:01.953Z,13.48
2019-04-22T04:09:55.948Z,13.83
2019-04-22T04:12:25.997Z,14.65
2019-04-22T04:15:14.071Z,14.45
2019-04-22T04:20:45.310Z,15.15
2019-04-22T04:23:39.862Z,14.60
2019-04-22T04:26:28.848Z,14.78
2019-04-22T04:29:28.036Z,16.02
2019-04-22T04:35:03.230Z,15.48
2019-04-22T04:37:41.001Z,14.75
2019-04-22T04:43:18.017Z,15.08
2019-04-22T04:46:11.791Z,14.23
2019-04-22T04:51:43.854Z,15.08
2019-04-22T04:54:31.353Z,15.40
2019-04-22T05:05:35.436Z,15.00
2019-04-22T05:08:00.731Z,15.48
2019-04-22T05:10:56.534Z,16.17
2019-04-22T05:13:49.021Z,15.83
2019-04-22T05:16:36.463Z,15.30
2019-04-22T05:19:15.093Z,15.78
2019-04-22T05:22:07.641Z,15.32
2019-04-22T05:24:43.716Z,15.93
2019-04-22T05:27:48.756Z,17.07
2019-04-22T05:33:08.045Z,14.58
2019-04-22T05:35:56.016Z,15.58
2019-04-22T05:38:47.932Z,15.60
2019-04-22T05:41:32.431Z,15.68
2019-04-22T05:44:14.521Z,14.95
2019-04-22T05:47:06.705Z,15.53
2019-04-22T05:49:48.117Z,15.65
2019-04-22T05:52:43.130Z,15.55
2019-04-22T05:55:41.472Z,14.90
2019-04-22T05:58:31.282Z,15.65
2019-04-22T06:04:01.496Z,15.08
2019-04-22T06:06:36.839Z,14.75
2019-04-22T06:09:28.475Z,15.03
2019-04-22T06:12:14.771Z,14.33
2019-04-22T06:15:03.505Z,14.18
2019-04-22T06:17:55.115Z,14.23
2019-04-22T06:20:46.578Z,14.00
2019-04-22T06:26:19.501Z,14.35
2019-04-22T06:29:03.291Z,15.93
2019-04-22T06:34:48.227Z,15.48
2019-04-22T06:37:23.505Z,15.30
2019-04-22T06:40:15.950Z,14.80
2019-04-22T06:43:01.057Z,16.12
2019-04-22T06:45:39.708Z,16.35
2019-04-22T06:48:30.060Z,16.27
2019-04-22T06:51:19.803Z,19.95
2019-04-22T06:54:03.192Z,18.07
2019-04-22T06:56:53.417Z,19.12
2019-04-22T06:59:37.641Z,19.07
2019-04-22T07:05:27.531Z,16.80
2019-04-22T07:08:05.634Z,16.45
2019-04-22T07:10:47.663Z,15.70
2019-04-22T07:19:09.221Z,14.68
2019-04-22T07:21:50.648Z,14.03
2019-04-22T07:27:40.520Z,13.65
2019-04-22T07:30:16.982Z,13.53
2019-04-22T07:35:54.895Z,13.43
2019-04-22T07:38:29.849Z,12.40
2019-04-22T07:41:25.954Z,12.82
2019-04-22T07:44:26.225Z,12.95
2019-04-22T07:47:08.375Z,11.78
2019-04-22T07:49:47.267Z,12.10
2019-04-22T07:52:31.985Z,11.63
2019-04-22T07:55:11.692Z,10.63
2019-04-22T07:58:05.251Z,10.63
2019-04-22T08:00:46.504Z,11.53
2019-04-22T08:03:47.731Z,10.10
2019-04-22T08:06:26.532Z,10.53
2019-04-22T08:09:18.142Z,10.25
2019-04-22T08:14:47.867Z,9.73
2019-04-22T08:17:52.101Z,9.40
2019-04-22T08:20:26.899Z,9.25
2019-04-22T08:23:08.752Z,8.85
2019-04-22T08:26:05.513Z,8.75
2019-04-22T08:28:45.826Z,8.40
2019-04-22T08:31:28.724Z,8.38
2019-04-22T08:34:13.692Z,8.25
2019-04-22T08:39:56.711Z,9.25
2019-04-22T08:42:50.236Z,9.33
2019-04-22T08:45:30.439Z,8.25
2019-04-22T08:48:07.709Z,9.43
2019-04-22T08:51:02.718Z,7.87
2019-04-22T08:53:53.689Z,8.10
2019-04-22T08:59:28.257Z,6.92
2019-04-22T09:02:09.849Z,6.97
2019-04-22T09:04:47.975Z,6.53
2019-04-22T09:07:44.760Z,6.65
2019-04-22T09:10:35.844Z,6.03
2019-04-22T09:13:32.749Z,5.47
2019-04-22T09:16:02.223Z,5.20
2019-04-22T09:18:54.542Z,5.37
2019-04-22T09:21:38.836Z,5.78
2019-04-22T09:24:25.162Z,5.30
2019-04-22T09:27:22.502Z,4.90
2019-04-22T09:30:01.239Z,4.78
2019-04-22T09:32:56.290Z,4.42
2019-04-22T09:35:37.574Z,4.72
2019-04-22T09:38:31.235Z,4.15
2019-04-22T09:41:10.110Z,5.20
2019-04-22T09:43:59.517Z,3.67
2019-04-22T09:46:40.999Z,4.70
2019-04-22T09:49:36.600Z,4.50
2019-04-22T09:52:15.056Z,4.17
2019-04-22T09:55:06.130Z,4.83
2019-04-22T09:57:51.036Z,4.15
2019-04-22T10:00:42.994Z,4.60
2019-04-22T10:03:25.931Z,3.98
2019-04-22T10:06:22.506Z,3.50
2019-04-22T10:11:47.670Z,3.85
2019-04-22T10:17:17.764Z,3.40
2019-04-22T10:20:13.337Z,3.35
2019-04-22T10:22:57.433Z,3.60
2019-04-22T10:25:45.661Z,2.90
2019-04-22T10:28:39.983Z,3.05
2019-04-22T10:31:24.966Z,2.65
2019-04-22T10:33:58.475Z,3.02
2019-04-22T10:36:27.823Z,3.15
2019-04-22T10:39:13.454Z,3.33
2019-04-22T10:42:02.892Z,3.12
2019-04-22T10:44:50.321Z,3.05
2019-04-22T10:47:36.380Z,2.85
2019-04-22T10:50:25.104Z,2.83
2019-04-22T10:53:11.201Z,3.25
2019-04-22T10:55:56.478Z,2.80
2019-04-22T10:58:42.589Z,3.30
2019-04-22T11:01:27.646Z,3.20
2019-04-22T11:04:13.295Z,3.15
2019-04-22T11:07:03.131Z,2.98
2019-04-22T11:11:21.388Z,2.80
2019-04-22T11:15:30.712Z,2.70
2019-04-22T11:17:57.714Z,2.67
2019-04-22T11:20:24.244Z,3.02
2019-04-22T11:24:14.863Z,3.85
2019-04-22T11:26:43.055Z,3.47
2019-04-22T11:29:10.048Z,3.58
2019-04-22T11:31:36.782Z,3.70
2019-04-22T11:34:03.238Z,3.92
2019-04-22T11:36:30.798Z,3.33
2019-04-22T11:39:01.928Z,3.35
2019-04-22T11:41:25.687Z,3.60
2019-04-22T11:43:53.490Z,3.75
2019-04-22T11:46:21.095Z,3.47
2019-04-22T11:48:47.908Z,3.83
2019-04-22T11:51:15.812Z,3.58
2019-04-22T11:53:42.842Z,4.12
2019-04-22T11:56:09.283Z,4.10
2019-04-22T11:58:37.069Z,4.40
2019-04-22T12:01:04.861Z,3.95
2019-04-22T12:03:33.803Z,5.17
2019-04-22T12:06:01.878Z,4.20
2019-04-22T12:08:29.091Z,4.30
2019-04-22T12:11:00.385Z,3.52
2019-04-22T12:13:24.472Z,4.80
2019-04-22T12:15:51.224Z,4.67
2019-04-22T12:18:19.330Z,5.00
2019-04-22T12:20:47.184Z,5.05
2019-04-22T12:23:15.201Z,4.35
2019-04-22T12:25:48.757Z,4.72
2019-04-22T12:28:11.027Z,4.50
2019-04-22T12:30:37.788Z,3.77
2019-04-22T12:33:05.237Z,3.17
2019-04-22T12:35:32.770Z,4.78
2019-04-22T12:38:04.347Z,4.10
2019-04-22T12:40:39.455Z,4.08
2019-04-22T12:42:57.519Z,3.62
2019-04-22T12:45:24.613Z,4.45
2019-04-22T12:47:51.407Z,4.45
2019-04-22T12:50:26.062Z,4.00
2019-04-22T12:52:58.938Z,4.00
2019-04-22T12:55:21.919Z,4.10
2019-04-22T12:57:48.906Z,3.83
2019-04-22T13:00:17.650Z,3.90
2019-04-22T13:02:45.015Z,3.90
2019-04-22T13:05:12.449Z,3.65
2019-04-22T13:07:39.991Z,3.65
2019-04-22T13:10:10.136Z,3.22
2019-04-22T13:12:37.134Z,2.83
2019-04-22T13:15:07.916Z,3.70
2019-04-22T13:17:35.739Z,4.28
2019-04-22T13:20:06.276Z,3.45
2019-04-22T13:22:33.070Z,3.27
2019-04-22T13:24:59.770Z,2.80
2019-04-22T13:27:26.837Z,3.27
2019-04-22T13:29:55.172Z,3.65
2019-04-22T13:32:24.932Z,3.47
2019-04-22T13:34:57.099Z,3.70
2019-04-22T13:37:20.970Z,2.77
2019-04-22T13:39:49.277Z,3.40
2019-04-22T13:42:21.310Z,3.83
2019-04-22T13:44:46.167Z,3.72
2019-04-22T13:47:32.578Z,4.37
2019-04-22T13:50:17.154Z,3.75
2019-04-22T13:55:08.228Z,4.10
2019-04-22T13:57:25.180Z,4.45
2019-04-22T13:59:43.009Z,4.08
2019-04-22T14:02:12.754Z,3.87
2019-04-22T14:04:42.990Z,4.37
2019-04-22T14:07:12.557Z,4.53
2019-04-22T14:09:40.102Z,4.20
2019-04-22T14:12:11.473Z,4.50
2019-04-22T14:14:39.171Z,4.20
2019-04-22T14:17:05.309Z,4.37
2019-04-22T14:19:33.999Z,4.08
2019-04-22T14:22:02.142Z,4.75
2019-04-22T14:24:30.020Z,4.22
2019-04-22T14:27:13.484Z,4.45
2019-04-22T14:29:26.052Z,4.05
2019-04-22T14:32:04.240Z,4.00
2019-04-22T14:34:21.611Z,4.00
2019-04-22T14:36:48.270Z,3.60
2019-04-22T14:39:15.745Z,4.08
2019-04-22T14:42:12.388Z,3.95
2019-04-22T14:49:40.150Z,2.85
2019-04-22T14:52:10.681Z,4.35
2019-04-22T14:54:28.445Z,3.77
2019-04-22T14:56:38.584Z,2.95
2019-04-22T14:59:05.146Z,4.15
2019-04-22T15:01:32.910Z,4.53
2019-04-22T15:04:00.772Z,3.98
2019-04-22T15:06:28.497Z,3.30
2019-04-22T15:08:57.989Z,3.95
2019-04-22T15:11:23.431Z,3.72
2019-04-22T15:13:51.520Z,3.92
2019-04-22T15:16:38.180Z,3.60
2019-04-22T15:19:13.710Z,3.77
2019-04-22T15:21:40.917Z,4.00
2019-04-22T15:24:23.081Z,3.60
2019-04-22T15:26:50.734Z,3.45
2019-04-22T15:29:17.617Z,3.58
2019-04-22T15:31:45.098Z,2.98
2019-04-22T15:34:12.391Z,2.75
2019-04-22T15:36:40.037Z,2.47
2019-04-22T15:39:07.438Z,3.42
2019-04-22T15:41:35.029Z,3.45
2019-04-22T15:44:01.881Z,3.40
2019-04-22T15:46:29.854Z,3.40
2019-04-22T15:48:57.933Z,3.33
2019-04-22T15:51:26.715Z,3.35
2019-04-22T15:53:53.930Z,2.55
2019-04-22T15:56:21.082Z,3.27
2019-04-22T15:58:47.960Z,3.12
2019-04-22T16:01:23.964Z,3.08
2019-04-22T16:03:44.756Z,3.42
2019-04-22T16:06:12.230Z,3.12
2019-04-22T16:08:40.977Z,3.62
2019-04-22T16:11:07.496Z,3.27
2019-04-22T16:13:37.679Z,2.98
2019-04-22T16:16:02.734Z,3.08
2019-04-22T16:18:30.708Z,2.92
2019-04-22T16:20:58.660Z,3.72
2019-04-22T16:23:30.291Z,3.08
2019-04-22T16:26:08.047Z,2.10
2019-04-22T16:28:35.801Z,3.35
2019-04-22T16:31:03.682Z,2.85
2019-04-22T16:33:31.190Z,3.12
2019-04-22T16:35:58.750Z,3.10
2019-04-22T16:38:26.934Z,3.12
2019-04-22T16:40:54.726Z,3.47
2019-04-22T16:43:22.499Z,2.33
2019-04-22T16:45:49.648Z,2.70
2019-04-22T16:48:16.093Z,3.10
2019-04-22T16:50:43.618Z,2.92
2019-04-22T16:53:12.422Z,3.27
2019-04-22T16:55:39.180Z,2.83
2019-04-22T16:58:07.048Z,3.00
2019-04-22T17:00:34.389Z,2.90
2019-04-22T17:03:12.975Z,2.72
2019-04-22T17:05:59.307Z,3.10
2019-04-22T17:08:26.803Z,2.83
2019-04-22T17:10:53.670Z,2.80
2019-04-22T17:13:24.924Z,2.85
2019-04-22T17:15:49.559Z,3.15
2019-04-22T17:18:17.186Z,2.80
2019-04-22T17:20:44.685Z,2.98
2019-04-22T17:23:11.816Z,3.40
2019-04-22T17:25:38.502Z,3.00
2019-04-22T17:28:05.740Z,2.70
2019-04-22T17:30:33.178Z,2.98
2019-04-22T17:33:00.871Z,2.70
2019-04-22T17:35:28.383Z,2.67
2019-04-22T17:38:06.750Z,2.08
2019-04-22T17:40:40.881Z,3.15
2019-04-22T17:43:16.828Z,3.72
2019-04-22T17:46:00.328Z,2.83
2019-04-22T17:48:53.337Z,2.75
2019-04-22T17:51:29.806Z,2.87
2019-04-22T17:53:53.252Z,2.47
2019-04-22T17:56:23.265Z,2.92
2019-04-22T17:58:54.330Z,2.52
2019-04-22T18:01:20.698Z,2.65
2019-04-22T18:03:33.768Z,2.70
2019-04-22T18:06:00.435Z,2.87
2019-04-22T18:08:45.263Z,2.80
2019-04-22T18:11:20.098Z,2.98
2019-04-22T18:13:50.575Z,2.35
2019-04-22T18:16:13.156Z,2.75
2019-04-22T18:18:36.965Z,2.95
2019-04-22T18:21:06.326Z,2.60
2019-04-22T18:23:22.690Z,2.98
2019-04-22T18:26:05.338Z,4.00
2019-04-22T18:28:42.189Z,3.08
2019-04-22T18:30:57.141Z,2.77
2019-04-22T18:33:28.947Z,2.60
2019-04-22T18:35:54.054Z,3.20
2019-04-22T18:38:42.406Z,3.02
2019-04-22T18:40:57.405Z,4.47
2019-04-22T18:43:28.961Z,4.03
2019-04-22T18:46:00.293Z,3.15
2019-04-22T18:48:17.739Z,2.83
2019-04-22T18:51:13.281Z,3.15
2019-04-22T18:53:44.393Z,2.98
2019-04-22T18:56:22.017Z,3.77
2019-04-22T18:58:41.985Z,3.30
2019-04-22T19:00:57.756Z,3.20
2019-04-22T19:03:29.857Z,2.87
2019-04-22T19:06:27.385Z,3.40
2019-04-22T19:08:43.356Z,2.92
2019-04-22T19:11:11.154Z,3.25
2019-04-22T19:14:03.739Z,2.80
2019-04-22T19:18:39.598Z,3.47
2019-04-22T19:21:19.766Z,3.55
2019-04-22T19:23:38.979Z,3.50
2019-04-22T19:26:04.066Z,3.77
2019-04-22T19:28:35.815Z,3.33
2019-04-22T19:31:10.293Z,3.30
2019-04-22T19:33:34.556Z,4.05
2019-04-22T19:36:01.525Z,3.30
2019-04-22T19:38:21.901Z,3.33
2019-04-22T19:41:06.929Z,3.72
2019-04-22T19:43:30.920Z,3.87
2019-04-22T19:45:55.731Z,3.52
2019-04-22T19:48:32.911Z,3.45
2019-04-22T19:51:07.795Z,3.60
2019-04-22T19:53:32.209Z,3.62
2019-04-22T19:55:50.978Z,3.70
2019-04-22T19:58:24.123Z,3.58
2019-04-22T20:01:13.198Z,3.42
2019-04-22T20:03:52.386Z,3.72
2019-04-22T20:08:44.148Z,3.87
2019-04-22T20:11:17.067Z,4.15
2019-04-22T20:13:41.485Z,3.67
2019-04-22T20:16:03.471Z,3.85
2019-04-22T20:18:46.393Z,4.08
2019-04-22T20:21:11.847Z,4.05
2019-04-22T20:23:31.990Z,3.12
2019-04-22T20:26:01.382Z,3.70
2019-04-22T20:28:39.243Z,3.87
2019-04-22T20:31:03.769Z,3.80
2019-04-22T20:33:42.835Z,3.70
2019-04-22T20:36:03.426Z,3.70
2019-04-22T20:38:30.741Z,3.00
2019-04-22T20:40:58.340Z,3.37
2019-04-22T20:43:38.596Z,3.87
2019-04-22T20:46:00.521Z,3.33
2019-04-22T20:48:22.226Z,3.45
2019-04-22T20:50:58.158Z,3.50
2019-04-22T20:53:32.920Z,3.30
2019-04-22T20:55:52.499Z,3.25
2019-04-22T20:58:21.322Z,3.22
2019-04-22T21:00:46.081Z,3.42
2019-04-22T21:03:13.698Z,2.98
2019-04-22T21:05:40.190Z,3.00
2019-04-22T21:08:19.408Z,3.00
2019-04-22T21:10:42.032Z,3.08
2019-04-22T21:13:08.514Z,3.30
2019-04-22T21:15:49.494Z,2.62
2019-04-22T21:18:09.984Z,3.02
2019-04-22T21:20:43.201Z,3.00
2019-04-22T21:23:15.432Z,3.08
2019-04-22T21:25:30.783Z,2.98
2019-04-22T21:28:09.612Z,3.12
2019-04-22T21:30:37.708Z,3.50
2019-04-22T21:32:58.238Z,3.20
2019-04-22T21:35:48.604Z,2.70
2019-04-22T21:38:04.328Z,2.90
2019-04-22T21:40:30.477Z,3.02
2019-04-22T21:43:04.623Z,2.30
2019-04-22T21:45:23.783Z,2.65
2019-04-22T21:48:05.251Z,3.00
2019-04-22T21:50:41.371Z,2.85
2019-04-22T21:53:00.745Z,2.83
2019-04-22T21:55:29.821Z,2.75
2019-04-22T21:58:06.860Z,3.08
2019-04-22T22:00:46.117Z,2.70
2019-04-22T22:03:11.697Z,3.12
2019-04-22T22:05:28.915Z,2.27
2019-04-22T22:07:52.197Z,3.17
2019-04-22T22:10:35.164Z,2.87
2019-04-22T22:13:00.720Z,3.27
2019-04-22T22:15:31.882Z,2.72
2019-04-22T22:17:55.464Z,2.90
2019-04-22T22:20:24.399Z,2.55
2019-04-22T22:23:03.689Z,2.65
2019-04-22T22:25:26.436Z,2.60
2019-04-22T22:27:47.487Z,3.30
2019-04-22T22:30:44.660Z,2.90
2019-04-22T22:32:56.517Z,3.27
2019-04-22T22:35:20.747Z,2.80
2019-04-22T22:37:51.762Z,2.47
2019-04-22T22:40:07.169Z,2.87
2019-04-22T22:42:36.949Z,2.80
2019-04-22T22:45:08.902Z,2.77
2019-04-22T22:47:44.543Z,2.72
2019-04-22T22:50:15.908Z,2.40
2019-04-22T22:53:00.911Z,3.27
2019-04-22T22:55:20.118Z,2.52
2019-04-22T22:57:44.353Z,2.52
2019-04-22T23:00:13.644Z,3.00
2019-04-22T23:02:49.546Z,2.17
2019-04-22T23:05:10.892Z,2.65
2019-04-22T23:07:40.929Z,2.58
2019-04-22T23:10:06.103Z,2.90
2019-04-22T23:15:06.271Z,2.80
2019-04-22T23:17:22.573Z,3.08
2019-04-22T23:19:51.703Z,1.82
2019-04-22T23:22:25.201Z,3.00
2019-04-22T23:25:01.732Z,2.77
2019-04-22T23:27:34.225Z,2.70
2019-04-22T23:30:05.369Z,2.83
2019-04-22T23:32:35.264Z,2.80
2019-04-22T23:35:15.272Z,2.58
2019-04-22T23:37:47.364Z,2.75
2019-04-22T23:40:23.110Z,2.87
2019-04-22T23:42:44.593Z,2.90
2019-04-22T23:45:09.566Z,2.55
2019-04-22T23:47:31.011Z,2.45
2019-04-22T23:50:09.482Z,3.05
2019-04-22T23:52:35.627Z,2.58
2019-04-22T23:55:10.972Z,2.72
2019-04-22T23:57:42.407Z,3.80
